| time (UTC) | temp C | wind direction | speed KPH | gust KPH | rain 1hr cm | rain 24hr cm | rain mn cm | humidity % | barometer mb |
| 20260507185941 | 21 | 174 | 6.4 | 14.5 | 0.00 | 0.00 | 0.00 | 92 | |
| 20260507185843 | 21 | 144 | 9.7 | 14.5 | 0.00 | 0.00 | 0.00 | 92 | |
| 20260507185830 | 21 | 178 | 11.3 | 14.5 | 0.00 | 0.00 | 0.00 | 92 | |
| 20260507185732 | 21 | 182 | 12.9 | 16.1 | 0.00 | 0.00 | 0.00 | 92 | |
| 20260507185705 | 21 | 146 | 12.9 | 16.1 | 0.00 | 0.00 | 0.00 | 92 | |
| 20260507185415 | 21 | 213 | 17.7 | 19.3 | 0.00 | 0.00 | 0.00 | 91 | |
| 20260507185403 | 21 | 180 | 11.3 | 16.1 | 0.00 | 0.00 | 0.00 | 91 | |
| 20260507185234 | 21 | 202 | 12.9 | 19.3 | 0.00 | 0.00 | 0.00 | 91 | |
| 20260507185111 | 21 | 221 | 16.1 | 17.7 | 0.00 | 0.00 | 0.00 | 91 | |
| 20260507185001 | 21 | 183 | 11.3 | 17.7 | 0.00 | 0.00 | 0.00 | 91 | |
| 20260507184837 | 21 | 225 | 12.9 | 17.7 | 0.00 | 0.00 | 0.00 | 91 | |
| 20260507184509 | 21 | 146 | 6.4 | 19.3 | 0.00 | 0.00 | 0.00 | 90 | |
| 20260507184434 | 21 | 157 | 11.3 | 19.3 | 0.00 | 0.00 | 0.00 | 90 | |
| 20260507183909 | 21 | 151 | 14.5 | 17.7 | 0.00 | 0.00 | 0.00 | 90 | |
| 20260507183604 | 21 | 122 | 9.7 | 14.5 | 0.00 | 0.00 | 0.00 | 90 | |
| 20260507183406 | 21 | 141 | 9.7 | 19.3 | 0.00 | 0.00 | 0.00 | 90 | |
| 20260507183309 | 21 | 176 | 14.5 | 24.1 | 0.00 | 0.00 | 0.00 | 90 | |
| 20260507183007 | 21 | 176 | 11.3 | 24.1 | 0.00 | 0.00 | 0.00 | 90 | |
| 20260507182719 | 21 | 183 | 16.1 | 19.3 | 0.00 | 0.00 | 0.00 | 89 | |
| 20260507182405 | 21 | 247 | 11.3 | 17.7 | 0.00 | 0.00 | 0.00 | 90 | |
| 20260507182116 | 21 | 93 | 11.3 | 22.5 | 0.00 | 0.00 | 0.00 | 89 | |
| 20260507181803 | 21 | 165 | 22.5 | 27.4 | 0.00 | 0.00 | 0.00 | 88 | |
| 20260507181507 | 22 | 200 | 16.1 | 19.3 | 0.00 | 0.00 | 0.00 | 88 | |
| 20260507181205 | 22 | 159 | 16.1 | 24.1 | 0.00 | 0.00 | 0.00 | 87 | |
| 20260507180913 | 22 | 161 | 14.5 | 22.5 | 0.00 | 0.00 | 0.00 | 87 | |
| 20260507180634 | 22 | 203 | 16.1 | 27.4 | 0.00 | 0.00 | 0.00 | 87 | |
| 20260507180005 | 22 | 191 | 20.9 | 27.4 | 0.00 | 0.00 | 0.00 | 86 | |
| 20260507175711 | 22 | 137 | 11.3 | 14.5 | 0.00 | 0.00 | 0.00 | 86 | |
| 20260507175402 | 22 | 184 | 11.3 | 19.3 | 0.00 | 0.00 | 0.00 | 86 | |
| 20260507175113 | 22 | 222 | 16.1 | 22.5 | 0.00 | 0.00 | 0.00 | 85 | |
| 20260507174812 | 22 | 154 | 16.1 | 19.3 | 0.00 | 0.00 | 0.00 | 84 | |
| 20260507174516 | 22 | 147 | 14.5 | 17.7 | 0.00 | 0.00 | 0.00 | 85 | |
| 20260507174207 | 22 | 122 | 9.7 | 17.7 | 0.00 | 0.00 | 0.00 | 87 | |
| 20260507173909 | 22 | 156 | 12.9 | 24.1 | 0.00 | 0.00 | 0.00 | 89 | |
| 20260507173611 | 22 | 167 | 12.9 | 24.1 | 0.00 | 0.00 | 0.00 | 89 | |
| 20260507173311 | 22 | 154 | 12.9 | 19.3 | 0.00 | 0.00 | 0.00 | 88 | |
| 20260507173005 | 22 | 188 | 16.1 | 24.1 | 0.00 | 0.00 | 0.00 | 87 | |
| 20260507172953 | 22 | 187 | 9.7 | 24.1 | 0.00 | 0.00 | 0.00 | 87 | |
| 20260507172715 | 22 | 191 | 19.3 | 24.1 | 0.00 | 0.00 | 0.00 | 87 | |
| 20260507172111 | 22 | 200 | 11.3 | 19.3 | 0.00 | 0.00 | 0.00 | 86 | |
| 20260507171806 | 22 | 219 | 16.1 | 17.7 | 0.00 | 0.00 | 0.00 | 86 | |
| 20260507171508 | 22 | 205 | 9.7 | 14.5 | 0.00 | 0.00 | 0.00 | 86 | |
| 20260507171216 | 22 | 208 | 12.9 | 19.3 | 0.00 | 0.00 | 0.00 | 86 | |
| 20260507170906 | 22 | 158 | 9.7 | 14.5 | 0.00 | 0.00 | 0.00 | 86 | |
| 20260507170620 | 22 | 133 | 16.1 | 19.3 | 0.00 | 0.00 | 0.00 | 86 | |
| 20260507170304 | 22 | 205 | 11.3 | 22.5 | 0.00 | 0.00 | 0.00 | 86 | |
| 20260507170007 | 23 | 167 | 9.7 | 16.1 | 0.00 | 0.00 | 0.00 | 85 | |
| 20260507165724 | 22 | 221 | 12.9 | 17.7 | 0.00 | 0.00 | 0.00 | 85 | |
| 20260507165410 | 22 | 174 | 11.3 | 14.5 | 0.00 | 0.00 | 0.00 | 86 | |
| 20260507165107 | 22 | 142 | 9.7 | 14.5 | 0.00 | 0.00 | 0.00 | 86 | |
| 20260507164803 | 22 | 168 | 4.8 | 9.7 | 0.00 | 0.00 | 0.00 | 87 | |
| 20260507164202 | 22 | 167 | 8.0 | 14.5 | 0.00 | 0.00 | 0.00 | 86 | |
| 20260507163914 | 22 | 254 | 11.3 | 14.5 | 0.00 | 0.00 | 0.00 | 86 | |
| 20260507163606 | 22 | 195 | 3.2 | 4.8 | 0.00 | 0.00 | 0.00 | 86 | |
| 20260507163308 | 22 | 195 | 6.4 | 9.7 | 0.00 | 0.00 | 0.00 | 87 | |
| 20260507163009 | 21 | 203 | 6.4 | 14.5 | 0.00 | 0.00 | 0.00 | 87 | |
| 20260507162707 | 22 | 196 | 11.3 | 14.5 | 0.00 | 0.00 | 0.00 | 87 | |
| 20260507162411 | 22 | 177 | 6.4 | 11.3 | 0.00 | 0.00 | 0.00 | 87 | |
| 20260507161810 | 22 | 172 | 8.0 | 12.9 | 0.00 | 0.00 | 0.00 | 87 | |
| 20260507161511 | 21 | 159 | 6.4 | 14.5 | 0.00 | 0.00 | 0.00 | 88 | |
| 20260507161212 | 22 | 210 | 11.3 | 14.5 | 0.00 | 0.00 | 0.00 | 87 | |
| 20260507160910 | 22 | 206 | 9.7 | 16.1 | 0.00 | 0.00 | 0.00 | 87 | |
| 20260507160008 | 22 | 209 | 6.4 | 11.3 | 0.00 | 0.00 | 0.00 | 85 | |
| 20260507155405 | 21 | 180 | 14.5 | 17.7 | 0.00 | 0.00 | 0.00 | 86 | |
| 20260507155108 | 22 | 184 | 11.3 | 16.1 | 0.00 | 0.00 | 0.00 | 86 | |
| 20260507154812 | 22 | 195 | 16.1 | 22.5 | 0.00 | 0.00 | 0.00 | 85 | |
| 20260507154505 | 22 | 222 | 11.3 | 14.5 | 0.00 | 0.00 | 0.00 | 86 | |
| 20260507154207 | 22 | 202 | 12.9 | 16.1 | 0.00 | 0.00 | 0.00 | 86 | |
| 20260507153911 | 22 | 145 | 3.2 | 14.5 | 0.00 | 0.00 | 0.00 | 86 | |
| 20260507153604 | 22 | 186 | 8.0 | 14.5 | 0.00 | 0.00 | 0.00 | 86 | |
| 20260507153308 | 22 | 163 | 11.3 | 17.7 | 0.00 | 0.00 | 0.00 | 85 | |
| 20260507153003 | 22 | 195 | 4.8 | 14.5 | 0.00 | 0.00 | 0.00 | 86 | |
| 20260507152708 | 22 | 165 | 9.7 | 16.1 | 0.00 | 0.00 | 0.00 | 86 | |
| 20260507152411 | 21 | 191 | 9.7 | 12.9 | 0.00 | 0.00 | 0.00 | 86 | |
| 20260507152105 | 22 | 198 | 8.0 | 14.5 | 0.00 | 0.00 | 0.00 | 86 | |
| 20260507151812 | 22 | 191 | 11.3 | 12.9 | 0.00 | 0.00 | 0.00 | 86 | |
| 20260507151511 | 22 | 165 | 9.7 | 17.7 | 0.00 | 0.00 | 0.00 | 85 | |
| 20260507151204 | 22 | 190 | 6.4 | 16.1 | 0.00 | 0.00 | 0.00 | 84 | |
| 20260507150909 | 22 | 177 | 12.9 | 14.5 | 0.00 | 0.00 | 0.00 | 85 | |
| 20260507150609 | 22 | 203 | 9.7 | 16.1 | 0.00 | 0.00 | 0.00 | 85 | |
| 20260507150309 | 22 | 201 | 11.3 | 12.9 | 0.00 | 0.00 | 0.00 | 84 | |
| 20260507150002 | 22 | 184 | 6.4 | 16.1 | 0.00 | 0.00 | 0.00 | 83 | |
| 20260507145402 | 21 | 212 | 4.8 | 9.7 | 0.00 | 0.00 | 0.00 | 84 | |
| 20260507145107 | 22 | 176 | 6.4 | 12.9 | 0.00 | 0.00 | 0.00 | 84 | |
| 20260507144811 | 22 | 226 | 11.3 | 14.5 | 0.00 | 0.00 | 0.00 | 83 | |
| 20260507144505 | 23 | 167 | 4.8 | 12.9 | 0.00 | 0.00 | 0.00 | 83 | |
| 20260507144207 | 22 | 222 | 8.0 | 12.9 | 0.00 | 0.00 | 0.00 | 82 | |
| 20260507143912 | 22 | 199 | 9.7 | 16.1 | 0.00 | 0.00 | 0.00 | 82 | |
| 20260507143605 | 22 | 187 | 6.4 | 14.5 | 0.00 | 0.00 | 0.00 | 81 | |
| 20260507143309 | 22 | 237 | 6.4 | 6.4 | 0.00 | 0.00 | 0.00 | 81 | |
| 20260507143010 | 23 | 197 | 6.4 | 11.3 | 0.00 | 0.00 | 0.00 | 79 | |
| 20260507142707 | 23 | 171 | 3.2 | 11.3 | 0.00 | 0.00 | 0.00 | 80 | |
| 20260507142411 | 23 | 147 | 6.4 | 11.3 | 0.00 | 0.00 | 0.00 | 80 | |
| 20260507142103 | 22 | 59 | 4.8 | 9.7 | 0.00 | 0.00 | 0.00 | 81 | |
| 20260507141812 | 22 | 190 | 9.7 | 12.9 | 0.00 | 0.00 | 0.00 | 80 | |
| 20260507141506 | 22 | 227 | 4.8 | 11.3 | 0.00 | 0.00 | 0.00 | 80 | |
| 20260507141209 | 23 | 138 | 9.7 | 14.5 | 0.00 | 0.00 | 0.00 | 79 | |
| 20260507140910 | 22 | 159 | 8.0 | 9.7 | 0.00 | 0.00 | 0.00 | 81 | |
| 20260507140605 | 22 | 217 | 6.4 | 11.3 | 0.00 | 0.00 | 0.00 | 82 | |
| 20260507140310 | 22 | 168 | 3.2 | 9.7 | 0.00 | 0.00 | 0.00 | 83 | |
| 20260507140013 | 22 | 88 | 3.2 | 16.1 | 0.00 | 0.00 | 0.00 | 84 | |
| 20260507140001 | 21 | 240 | 8.0 | 9.7 | 0.00 | 0.00 | 0.00 | 84 | |
| 20260507135403 | 22 | 168 | 3.2 | 4.8 | 0.00 | 0.00 | 0.00 | 85 | |
| 20260507135107 | 22 | 149 | 4.8 | 11.3 | 0.00 | 0.00 | 0.00 | 84 | |
| 20260507134812 | 22 | 135 | 6.4 | 11.3 | 0.00 | 0.00 | 0.00 | 83 | |
| 20260507134505 | 22 | 30 | 6.4 | 9.7 | 0.00 | 0.00 | 0.00 | 85 | |
| 20260507134208 | 21 | 169 | 1.6 | 11.3 | 0.00 | 0.00 | 0.00 | 85 | |
| 20260507133915 | 21 | 142 | 9.7 | 11.3 | 0.00 | 0.00 | 0.00 | 85 | |
| 20260507133607 | 21 | 174 | 3.2 | 6.4 | 0.00 | 0.00 | 0.00 | 85 | |
| 20260507133313 | 21 | 179 | 4.8 | 11.3 | 0.00 | 0.00 | 0.00 | 87 | |
| 20260507133006 | 21 | 114 | 8.0 | 14.5 | 0.00 | 0.00 | 0.00 | 87 | |
| 20260507132710 | 21 | 200 | 6.4 | 16.1 | 0.00 | 0.00 | 0.00 | 86 | |
| 20260507132404 | 21 | 218 | 3.2 | 4.8 | 0.00 | 0.00 | 0.00 | 87 | |
| 20260507132109 | 21 | 216 | 11.3 | 17.7 | 0.00 | 0.00 | 0.00 | 86 | |
| 20260507131813 | 21 | 206 | 3.2 | 4.8 | 0.00 | 0.00 | 0.00 | 87 | |
| 20260507131507 | 20 | 193 | 17.7 | 22.5 | 0.00 | 0.00 | 0.00 | 87 | |
| 20260507131212 | 20 | 230 | 4.8 | 16.1 | 0.00 | 0.00 | 0.00 | 88 | |
| 20260507130905 | 20 | 158 | 12.9 | 14.5 | 0.00 | 0.00 | 0.00 | 88 | |
| 20260507130610 | 20 | 155 | 16.1 | 17.7 | 0.00 | 0.00 | 0.00 | 88 | |
| 20260507130302 | 20 | 134 | 8.0 | 11.3 | 0.00 | 0.00 | 0.00 | 88 | |
| 20260507130008 | 20 | 143 | 6.4 | 16.1 | 0.00 | 0.00 | 0.00 | 88 | |
| 20260507125409 | 20 | 159 | 6.4 | 17.7 | 0.00 | 0.00 | 0.00 | 89 | |
| 20260507125105 | 20 | 144 | 9.7 | 14.5 | 0.00 | 0.00 | 0.00 | 89 | |
| 20260507124808 | 20 | 169 | 9.7 | 17.7 | 0.00 | 0.00 | 0.00 | 89 | |
| 20260507124502 | 21 | 130 | 12.9 | 16.1 | 0.00 | 0.00 | 0.00 | 88 | |
| 20260507124207 | 20 | 152 | 9.7 | 11.3 | 0.00 | 0.00 | 0.00 | 89 | |
| 20260507123859 | 21 | 135 | 16.1 | 17.7 | 0.00 | 0.00 | 0.00 | 88 | |
| 20260507123602 | 21 | 143 | 12.9 | 17.7 | 0.00 | 0.00 | 0.00 | 88 | |
| 20260507123304 | 21 | 220 | 9.7 | 14.5 | 0.00 | 0.00 | 0.00 | 88 | |
| 20260507122958 | 20 | 138 | 6.4 | 22.5 | 0.00 | 0.00 | 0.00 | 88 | |
| 20260507122705 | 21 | 150 | 11.3 | 16.1 | 0.00 | 0.00 | 0.00 | 88 | |
| 20260507122407 | 21 | 116 | 9.7 | 12.9 | 0.00 | 0.00 | 0.00 | 88 | |
| 20260507122102 | 20 | 149 | 12.9 | 16.1 | 0.00 | 0.00 | 0.00 | 89 | |
| 20260507121807 | 20 | 134 | 6.4 | 14.5 | 0.00 | 0.00 | 0.00 | 90 | |
| 20260507121500 | 20 | 127 | 6.4 | 25.7 | 0.00 | 0.00 | 0.00 | 91 | |
| 20260507121204 | 20 | 192 | 14.5 | 22.5 | 0.00 | 0.00 | 0.00 | 90 | |
| 20260507120905 | 20 | 166 | 11.3 | 19.3 | 0.00 | 0.00 | 0.00 | 90 | |
| 20260507120600 | 20 | 210 | 11.3 | 24.1 | 0.00 | 0.00 | 0.00 | 91 | |
| 20260507120304 | 20 | 169 | 12.9 | 22.5 | 0.00 | 0.00 | 0.00 | 91 | |
| 20260507120005 | 20 | 152 | 16.1 | 19.3 | 0.00 | 0.00 | 0.00 | 91 | |
| 20260507115358 | 20 | 119 | 19.3 | 22.5 | 0.00 | 0.00 | 0.00 | 92 | |
| 20260507115102 | 20 | 173 | 12.9 | 22.5 | 0.00 | 0.00 | 0.00 | 93 | |
| 20260507114807 | 20 | 153 | 9.7 | 22.5 | 0.00 | 0.00 | 0.00 | 93 | |
| 20260507114501 | 19 | 191 | 9.7 | 24.1 | 0.00 | 0.00 | 0.00 | 93 | |
| 20260507114206 | 20 | 244 | 12.9 | 14.5 | 0.00 | 0.00 | 0.00 | 93 | |
| 20260507113858 | 20 | 188 | 11.3 | 24.1 | 0.00 | 0.00 | 0.00 | 93 | |
| 20260507113603 | 19 | 190 | 9.7 | 19.3 | 0.00 | 0.00 | 0.00 | 93 | |
| 20260507113308 | 19 | 199 | 16.1 | 22.5 | 0.00 | 0.00 | 0.00 | 93 | |
| 20260507113000 | 19 | 144 | 11.3 | 22.5 | 0.00 | 0.00 | 0.00 | 94 | |
| 20260507112706 | 19 | 188 | 9.7 | 22.5 | 0.00 | 0.00 | 0.00 | 94 | |
| 20260507112400 | 19 | 154 | 9.7 | 14.5 | 0.00 | 0.00 | 0.00 | 94 | |
| 20260507112104 | 19 | 217 | 12.9 | 17.7 | 0.00 | 0.00 | 0.00 | 94 | |
| 20260507111758 | 19 | 233 | 11.3 | 17.7 | 0.00 | 0.00 | 0.00 | 94 | |
| 20260507111504 | 19 | 172 | 9.7 | 17.7 | 0.00 | 0.00 | 0.00 | 94 | |
| 20260507111207 | 19 | 173 | 8.0 | 16.1 | 0.00 | 0.00 | 0.00 | 94 | |
| 20260507110900 | 19 | 161 | 8.0 | 12.9 | 0.00 | 0.00 | 0.00 | 94 | |
| 20260507110605 | 19 | 80 | 12.9 | 16.1 | 0.00 | 0.00 | 0.00 | 94 | |
| 20260507110308 | 19 | 173 | 3.2 | 14.5 | 0.00 | 0.00 | 0.00 | 94 | |
| 20260507110002 | 19 | 165 | 8.0 | 14.5 | 0.00 | 0.00 | 0.00 | 94 | |
| 20260507105402 | 19 | 102 | 3.2 | 14.5 | 0.00 | 0.00 | 0.00 | 94 | |
| 20260507105106 | 19 | 141 | 6.4 | 12.9 | 0.00 | 0.00 | 0.00 | 94 | |
| 20260507104800 | 19 | 177 | 8.0 | 16.1 | 0.00 | 0.00 | 0.00 | 94 | |
| 20260507104504 | 19 | 114 | 9.7 | 14.5 | 0.00 | 0.00 | 0.00 | 94 | |
| 20260507104206 | 19 | 160 | 11.3 | 14.5 | 0.00 | 0.00 | 0.00 | 94 | |
| 20260507103908 | 19 | 151 | 14.5 | 17.7 | 0.00 | 0.00 | 0.00 | 94 | |
| 20260507103607 | 19 | 114 | 8.0 | 22.5 | 0.00 | 0.00 | 0.00 | 94 | |
| 20260507103308 | 19 | 178 | 22.5 | 27.4 | 0.00 | 0.00 | 0.00 | 94 | |
| 20260507103000 | 19 | 156 | 12.9 | 22.5 | 0.00 | 0.00 | 0.00 | 94 | |
| 20260507102708 | 19 | 211 | 9.7 | 17.7 | 0.00 | 0.00 | 0.00 | 94 | |
| 20260507102408 | 19 | 158 | 16.1 | 27.4 | 0.00 | 0.00 | 0.00 | 94 | |
| 20260507102102 | 19 | 169 | 11.3 | 25.7 | 0.00 | 0.00 | 0.00 | 94 | |
| 20260507101806 | 19 | 165 | 12.9 | 17.7 | 0.00 | 0.00 | 0.00 | 94 | |
| 20260507101500 | 19 | 156 | 12.9 | 29.0 | 0.00 | 0.00 | 0.00 | 94 | |
| 20260507101205 | 19 | 120 | 12.9 | 29.0 | 0.00 | 0.00 | 0.00 | 94 | |
| 20260507100900 | 19 | 149 | 22.5 | 27.4 | 0.00 | 0.00 | 0.00 | 94 | |
| 20260507100602 | 19 | 152 | 19.3 | 27.4 | 0.00 | 0.00 | 0.00 | 94 | |
| 20260507100307 | 19 | 167 | 22.5 | 25.7 | 0.00 | 0.00 | 0.00 | 94 | |
| 20260507100010 | 19 | 155 | 17.7 | 25.7 | 0.00 | 0.00 | 0.00 | 94 | |
| 20260507095404 | 19 | 217 | 9.7 | 17.7 | 0.00 | 0.00 | 0.00 | 94 | |
| 20260507095109 | 19 | 170 | 11.3 | 17.7 | 0.00 | 0.00 | 0.00 | 94 | |
| 20260507094801 | 19 | 126 | 11.3 | 16.1 | 0.00 | 0.00 | 0.00 | 94 | |
| 20260507094506 | 19 | 159 | 12.9 | 24.1 | 0.00 | 0.00 | 0.00 | 94 | |
| 20260507094159 | 19 | 134 | 12.9 | 17.7 | 0.00 | 0.00 | 0.00 | 94 | |
| 20260507093905 | 19 | 155 | 14.5 | 22.5 | 0.00 | 0.00 | 0.00 | 94 | |
| 20260507093559 | 19 | 199 | 16.1 | 19.3 | 0.00 | 0.00 | 0.00 | 94 | |
| 20260507093302 | 19 | 133 | 14.5 | 25.7 | 0.00 | 0.00 | 0.00 | 94 | |
| 20260507093005 | 19 | 184 | 12.9 | 22.5 | 0.00 | 0.00 | 0.00 | 94 | |
| 20260507092704 | 19 | 160 | 14.5 | 16.1 | 0.00 | 0.00 | 0.00 | 94 | |
| 20260507092405 | 19 | 146 | 16.1 | 22.5 | 0.00 | 0.00 | 0.00 | 94 | |
| 20260507092109 | 19 | 141 | 6.4 | 16.1 | 0.00 | 0.00 | 0.00 | 94 | |
| 20260507091802 | 19 | 149 | 11.3 | 17.7 | 0.00 | 0.00 | 0.00 | 94 | |
| 20260507091505 | 19 | 148 | 16.1 | 17.7 | 0.00 | 0.00 | 0.00 | 94 | |
| 20260507091210 | 19 | 163 | 11.3 | 14.5 | 0.00 | 0.00 | 0.00 | 94 | |
| 20260507090904 | 19 | 117 | 11.3 | 16.1 | 0.00 | 0.00 | 0.00 | 94 | |
| 20260507090606 | 19 | 181 | 8.0 | 14.5 | 0.00 | 0.00 | 0.00 | 94 | |
| 20260507090259 | 19 | 137 | 8.0 | 14.5 | 0.00 | 0.00 | 0.00 | 94 | |
| 20260507090003 | 19 | 148 | 16.1 | 17.7 | 0.00 | 0.00 | 0.00 | 94 | |
| 20260507085403 | 19 | 121 | 8.0 | 11.3 | 0.00 | 0.00 | 0.00 | 94 | |
| 20260507085108 | 19 | 194 | 6.4 | 12.9 | 0.00 | 0.00 | 0.00 | 94 | |
| 20260507084809 | 19 | 197 | 8.0 | 14.5 | 0.00 | 0.00 | 0.00 | 94 | |
| 20260507084506 | 19 | 128 | 8.0 | 17.7 | 0.00 | 0.00 | 0.00 | 94 | |
| 20260507084208 | 19 | 161 | 4.8 | 12.9 | 0.00 | 0.00 | 0.00 | 94 | |
| 20260507083902 | 19 | 156 | 9.7 | 12.9 | 0.00 | 0.00 | 0.00 | 94 | |
| 20260507083608 | 19 | 214 | 6.4 | 9.7 | 0.00 | 0.00 | 0.00 | 94 | |
| 20260507083301 | 19 | 200 | 6.4 | 12.9 | 0.00 | 0.00 | 0.00 | 94 | |
| 20260507083003 | 19 | 116 | 6.4 | 12.9 | 0.00 | 0.00 | 0.00 | 94 | |
| 20260507082706 | 19 | 169 | 11.3 | 14.5 | 0.00 | 0.00 | 0.00 | 94 | |
| 20260507082400 | 19 | 147 | 8.0 | 12.9 | 0.00 | 0.00 | 0.00 | 94 | |
| 20260507082109 | 19 | 156 | 9.7 | 12.9 | 0.00 | 0.00 | 0.00 | 94 | |
| 20260507081810 | 19 | 175 | 9.7 | 14.5 | 0.00 | 0.00 | 0.00 | 94 | |
| 20260507081504 | 19 | 157 | 4.8 | 12.9 | 0.00 | 0.00 | 0.00 | 94 | |
| 20260507081201 | 19 | 151 | 9.7 | 16.1 | 0.00 | 0.00 | 0.00 | 94 | |
| 20260507080902 | 19 | 160 | 12.9 | 16.1 | 0.00 | 0.00 | 0.00 | 94 | |
| 20260507080606 | 19 | 164 | 9.7 | 16.1 | 0.00 | 0.00 | 0.00 | 94 | |
| 20260507080300 | 19 | 127 | 9.7 | 14.5 | 0.00 | 0.00 | 0.00 | 94 | |
| 20260507080004 | 19 | 169 | 12.9 | 14.5 | 0.00 | 0.00 | 0.00 | 94 | |
| 20260507075400 | 19 | 145 | 12.9 | 12.9 | 0.00 | 0.00 | 0.00 | 94 | |
| 20260507075105 | 19 | 156 | 9.7 | 16.1 | 0.00 | 0.00 | 0.00 | 94 | |
| 20260507074809 | 19 | 143 | 9.7 | 16.1 | 0.00 | 0.00 | 0.00 | 94 | |
| 20260507074502 | 19 | 119 | 9.7 | 12.9 | 0.00 | 0.00 | 0.00 | 94 | |
| 20260507074207 | 19 | 163 | 6.4 | 12.9 | 0.00 | 0.00 | 0.00 | 94 | |
| 20260507073901 | 19 | 146 | 8.0 | 12.9 | 0.00 | 0.00 | 0.00 | 94 | |
| 20260507073604 | 19 | 114 | 6.4 | 12.9 | 0.00 | 0.00 | 0.00 | 93 | |
| 20260507073308 | 19 | 219 | 6.4 | 12.9 | 0.00 | 0.00 | 0.00 | 93 | |
| 20260507073001 | 19 | 139 | 4.8 | 6.4 | 0.00 | 0.00 | 0.00 | 93 | |
| 20260507072706 | 19 | 120 | 3.2 | 12.9 | 0.00 | 0.00 | 0.00 | 93 | |
| 20260507072401 | 19 | 195 | 6.4 | 17.7 | 0.00 | 0.00 | 0.00 | 93 | |
| 20260507072107 | 19 | 231 | 14.5 | 17.7 | 0.00 | 0.00 | 0.00 | 93 | |
| 20260507071809 | 19 | 161 | 4.8 | 11.3 | 0.00 | 0.00 | 0.00 | 93 | |
| 20260507071508 | 19 | 182 | 12.9 | 16.1 | 0.00 | 0.00 | 0.00 | 93 | |
| 20260507071201 | 19 | 168 | 16.1 | 17.7 | 0.00 | 0.00 | 0.00 | 93 | |
| 20260507070910 | 19 | 207 | 11.3 | 19.3 | 0.00 | 0.00 | 0.00 | 93 | |
| 20260507070604 | 19 | 169 | 6.4 | 17.7 | 0.00 | 0.00 | 0.00 | 93 | |
| 20260507070306 | 19 | 154 | 9.7 | 16.1 | 0.00 | 0.00 | 0.00 | 93 | |
| 20260507070000 | 19 | 169 | 9.7 | 17.7 | 0.00 | 0.00 | 0.00 | 92 | |
| 20260507065405 | 19 | 162 | 14.5 | 16.1 | 0.00 | 0.00 | 0.00 | 92 | |
| 20260507065105 | 19 | 152 | 11.3 | 17.7 | 0.00 | 0.00 | 0.00 | 92 | |
| 20260507064809 | 19 | 165 | 11.3 | 19.3 | 0.00 | 0.00 | 0.00 | 92 | |
| 20260507064502 | 19 | 154 | 12.9 | 16.1 | 0.00 | 0.00 | 0.00 | 92 | |
| 20260507064211 | 19 | 170 | 11.3 | 19.3 | 0.00 | 0.00 | 0.00 | 92 | |
| 20260507063904 | 19 | 166 | 16.1 | 19.3 | 0.00 | 0.00 | 0.00 | 92 | |
| 20260507063609 | 19 | 157 | 12.9 | 17.7 | 0.00 | 0.00 | 0.00 | 92 | |
| 20260507063304 | 19 | 150 | 9.7 | 14.5 | 0.00 | 0.00 | 0.00 | 92 | |
| 20260507063009 | 19 | 153 | 9.7 | 24.1 | 0.00 | 0.00 | 0.00 | 92 | |
| 20260507062702 | 19 | 202 | 16.1 | 17.7 | 0.00 | 0.00 | 0.00 | 92 | |
| 20260507062406 | 19 | 162 | 9.7 | 16.1 | 0.00 | 0.00 | 0.00 | 93 | |
| 20260507062111 | 19 | 196 | 12.9 | 17.7 | 0.00 | 0.00 | 0.00 | 93 | |
| 20260507061800 | 19 | 191 | 16.1 | 19.3 | 0.00 | 0.00 | 0.00 | 93 | |
| 20260507061503 | 19 | 178 | 14.5 | 17.7 | 0.00 | 0.00 | 0.00 | 93 | |
| 20260507061206 | 19 | 151 | 12.9 | 19.3 | 0.00 | 0.00 | 0.00 | 93 | |
| 20260507060911 | 19 | 150 | 14.5 | 17.7 | 0.00 | 0.00 | 0.00 | 93 | |
| 20260507060605 | 19 | 129 | 8.0 | 19.3 | 0.00 | 0.00 | 0.00 | 93 | |
| 20260507060303 | 19 | 170 | 17.7 | 24.1 | 0.00 | 0.00 | 0.00 | 93 | |
| 20260507060003 | 19 | 145 | 14.5 | 16.1 | 0.00 | 0.00 | 0.00 | 93 | |
| 20260507055408 | 19 | 139 | 12.9 | 14.5 | 0.00 | 0.00 | 0.00 | 93 | |
| 20260507055102 | 19 | 175 | 12.9 | 17.7 | 0.00 | 0.00 | 0.00 | 92 | |
| 20260507054805 | 19 | 160 | 12.9 | 14.5 | 0.00 | 0.00 | 0.00 | 92 | |
| 20260507054510 | 19 | 162 | 14.5 | 16.1 | 0.00 | 0.00 | 0.00 | 92 | |
| 20260507054203 | 19 | 150 | 12.9 | 16.1 | 0.00 | 0.00 | 0.00 | 91 | |
| 20260507053908 | 19 | 161 | 12.9 | 16.1 | 0.00 | 0.00 | 0.00 | 91 | |
| 20260507053602 | 19 | 139 | 9.7 | 14.5 | 0.00 | 0.00 | 0.00 | 90 | |
| 20260507053307 | 19 | 131 | 11.3 | 14.5 | 0.00 | 0.00 | 0.00 | 90 | |
| 20260507053011 | 19 | 180 | 9.7 | 14.5 | 0.00 | 0.00 | 0.00 | 90 | |
| 20260507052704 | 19 | 144 | 9.7 | 12.9 | 0.00 | 0.00 | 0.00 | 89 | |
| 20260507052409 | 19 | 167 | 8.0 | 11.3 | 0.00 | 0.00 | 0.00 | 89 | |
| 20260507052109 | 19 | 200 | 11.3 | 14.5 | 0.00 | 0.00 | 0.00 | 89 | |
| 20260507051809 | 19 | 165 | 9.7 | 11.3 | 0.00 | 0.00 | 0.00 | 89 | |
| 20260507051510 | 19 | 186 | 9.7 | 12.9 | 0.00 | 0.00 | 0.00 | 88 | |
| 20260507051205 | 19 | 146 | 9.7 | 12.9 | 0.00 | 0.00 | 0.00 | 88 | |
| 20260507050909 | 19 | 192 | 9.7 | 11.3 | 0.00 | 0.00 | 0.00 | 88 | |
| 20260507050602 | 19 | 173 | 9.7 | 11.3 | 0.00 | 0.00 | 0.00 | 87 | |
| 20260507050308 | 20 | 223 | 8.0 | 11.3 | 0.00 | 0.00 | 0.00 | 86 | |
| 20260507050013 | 20 | 188 | 4.8 | 9.7 | 0.00 | 0.00 | 0.00 | 86 | |
| 20260507050001 | 20 | 166 | 6.4 | 9.7 | 0.00 | 0.00 | 0.00 | 85 | |
| 20260507045402 | 20 | 165 | 11.3 | 12.9 | 0.00 | 0.00 | 0.00 | 85 | |
| 20260507045107 | 20 | 181 | 11.3 | 12.9 | 0.00 | 0.00 | 0.00 | 85 | |
| 20260507044808 | 20 | 153 | 8.0 | 11.3 | 0.00 | 0.00 | 0.00 | 85 | |
| 20260507044502 | 20 | 164 | 8.0 | 11.3 | 0.00 | 0.00 | 0.00 | 85 | |
| 20260507044207 | 20 | 166 | 8.0 | 12.9 | 0.00 | 0.00 | 0.00 | 85 | |
| 20260507043912 | 20 | 170 | 8.0 | 11.3 | 0.00 | 0.00 | 0.00 | 84 | |
| 20260507043603 | 19 | 165 | 8.0 | 11.3 | 0.00 | 0.00 | 0.00 | 85 | |
| 20260507043308 | 19 | 189 | 4.8 | 6.4 | 0.00 | 0.00 | 0.00 | 85 | |
| 20260507043003 | 20 | 196 | 6.4 | 6.4 | 0.00 | 0.00 | 0.00 | 85 | |
| 20260507042713 | 19 | 152 | 4.8 | 6.4 | 0.00 | 0.00 | 0.00 | 86 | |
| 20260507042407 | 19 | 177 | 4.8 | 9.7 | 0.00 | 0.00 | 0.00 | 86 | |
| 20260507042110 | 19 | 209 | 4.8 | 9.7 | 0.00 | 0.00 | 0.00 | 87 | |
| 20260507041809 | 19 | 139 | 6.4 | 6.4 | 0.00 | 0.00 | 0.00 | 87 | |
| 20260507041512 | 19 | 170 | 8.0 | 9.7 | 0.00 | 0.00 | 0.00 | 87 | |
| 20260507041204 | 19 | 186 | 6.4 | 6.4 | 0.00 | 0.00 | 0.00 | 87 | |
| 20260507040909 | 19 | 160 | 8.0 | 9.7 | 0.00 | 0.00 | 0.00 | 88 | |
| 20260507040612 | 19 | 151 | 6.4 | 9.7 | 0.00 | 0.00 | 0.00 | 88 | |
| 20260507040306 | 19 | 155 | 6.4 | 6.4 | 0.00 | 0.00 | 0.00 | 88 | |
| 20260507040009 | 19 | 168 | 6.4 | 6.4 | 0.00 | 0.00 | 0.00 | 88 | |
| 20260507035407 | 19 | 168 | 8.0 | 11.3 | 0.00 | 0.00 | 0.00 | 89 | |
| 20260507035112 | 19 | 156 | 8.0 | 9.7 | 0.00 | 0.00 | 0.00 | 90 | |
| 20260507034807 | 19 | 169 | 6.4 | 9.7 | 0.00 | 0.00 | 0.00 | 90 | |
| 20260507034512 | 19 | 166 | 9.7 | 11.3 | 0.00 | 0.00 | 0.00 | 90 | |
| 20260507034206 | 19 | 171 | 8.0 | 11.3 | 0.00 | 0.00 | 0.00 | 91 | |
| 20260507033908 | 19 | 160 | 8.0 | 12.9 | 0.00 | 0.00 | 0.00 | 91 | |
| 20260507033611 | 19 | 144 | 9.7 | 12.9 | 0.00 | 0.00 | 0.00 | 91 | |
| 20260507033313 | 19 | 157 | 9.7 | 11.3 | 0.00 | 0.00 | 0.00 | 91 | |
| 20260507033006 | 19 | 176 | 6.4 | 9.7 | 0.00 | 0.00 | 0.00 | 91 | |
| 20260507032711 | 19 | 170 | 4.8 | 9.7 | 0.00 | 0.00 | 0.00 | 91 | |
| 20260507032405 | 19 | 136 | 4.8 | 9.7 | 0.00 | 0.00 | 0.00 | 91 | |
| 20260507032109 | 19 | 182 | 9.7 | 12.9 | 0.00 | 0.00 | 0.00 | 91 | |
| 20260507031813 | 19 | 123 | 8.0 | 11.3 | 0.00 | 0.00 | 0.00 | 91 | |
| 20260507031507 | 19 | 87 | 6.4 | 9.7 | 0.00 | 0.00 | 0.00 | 91 | |
| 20260507031212 | 19 | 169 | 8.0 | 11.3 | 0.00 | 0.00 | 0.00 | 91 | |
| 20260507030906 | 19 | 180 | 8.0 | 11.3 | 0.00 | 0.00 | 0.00 | 91 | |
| 20260507030609 | 19 | 154 | 9.7 | 11.3 | 0.00 | 0.00 | 0.00 | 92 | |
| 20260507030303 | 19 | 166 | 6.4 | 12.9 | 0.00 | 0.00 | 0.00 | 92 | |
| 20260507030007 | 18 | 192 | 9.7 | 12.9 | 0.00 | 0.00 | 0.00 | 93 | |
| 20260507025408 | 18 | 175 | 8.0 | 11.3 | 0.00 | 0.00 | 0.00 | 93 | |
| 20260507025111 | 18 | 178 | 8.0 | 9.7 | 0.00 | 0.00 | 0.00 | 93 | |
| 20260507024803 | 18 | 127 | 6.4 | 9.7 | 0.00 | 0.00 | 0.00 | 93 | |
| 20260507024508 | 18 | 150 | 9.7 | 12.9 | 0.00 | 0.00 | 0.00 | 93 | |
| 20260507024212 | 19 | 154 | 6.4 | 9.7 | 0.00 | 0.00 | 0.00 | 93 | |
| 20260507023906 | 19 | 169 | 6.4 | 9.7 | 0.00 | 0.00 | 0.00 | 93 | |
| 20260507023612 | 19 | 147 | 4.8 | 9.7 | 0.00 | 0.00 | 0.00 | 93 | |
| 20260507023306 | 19 | 154 | 4.8 | 4.8 | 0.00 | 0.00 | 0.00 | 93 | |
| 20260507023010 | 19 | 152 | 6.4 | 9.7 | 0.00 | 0.00 | 0.00 | 93 | |
| 20260507022705 | 19 | 139 | 6.4 | 9.7 | 0.00 | 0.00 | 0.00 | 93 | |
| 20260507022410 | 19 | 138 | 4.8 | 6.4 | 0.00 | 0.00 | 0.00 | 92 | |
| 20260507022113 | 19 | 169 | 6.4 | 11.3 | 0.00 | 0.00 | 0.00 | 92 | |
| 20260507021807 | 19 | 114 | 6.4 | 9.7 | 0.00 | 0.00 | 0.00 | 92 | |
| 20260507021512 | 19 | 165 | 4.8 | 9.7 | 0.00 | 0.00 | 0.00 | 92 | |
| 20260507021207 | 19 | 184 | 8.0 | 11.3 | 0.00 | 0.00 | 0.00 | 91 | |
| 20260507020912 | 19 | 157 | 8.0 | 9.7 | 0.00 | 0.00 | 0.00 | 91 | |
| 20260507020604 | 19 | 196 | 6.4 | 6.4 | 0.00 | 0.00 | 0.00 | 90 | |
| 20260507020309 | 20 | 159 | 6.4 | 11.3 | 0.00 | 0.00 | 0.00 | 90 | |
| 20260507020014 | 20 | 235 | 8.0 | 11.3 | 0.00 | 0.00 | 0.00 | 90 | |
| 20260507020002 | 20 | 207 | 11.3 | 14.5 | 0.00 | 0.00 | 0.00 | 89 | |
| 20260507015412 | 19 | 187 | 12.9 | 14.5 | 0.00 | 0.00 | 0.00 | 89 | |
| 20260507015104 | 19 | 169 | 11.3 | 14.5 | 0.00 | 0.00 | 0.00 | 88 | |
| 20260507014808 | 19 | 201 | 8.0 | 16.1 | 0.00 | 0.00 | 0.00 | 88 | |
| 20260507014513 | 19 | 165 | 8.0 | 14.5 | 0.00 | 0.00 | 0.00 | 88 | |
| 20260507014208 | 19 | 206 | 12.9 | 14.5 | 0.00 | 0.00 | 0.00 | 88 | |
| 20260507013911 | 19 | 201 | 9.7 | 12.9 | 0.00 | 0.00 | 0.00 | 88 | |
| 20260507013612 | 19 | 168 | 9.7 | 16.1 | 0.00 | 0.00 | 0.00 | 88 | |
| 20260507013306 | 19 | 175 | 9.7 | 12.9 | 0.00 | 0.00 | 0.00 | 89 | |
| 20260507013010 | 19 | 144 | 9.7 | 11.3 | 0.00 | 0.00 | 0.00 | 89 | |
| 20260507012713 | 19 | 196 | 12.9 | 16.1 | 0.00 | 0.00 | 0.00 | 90 | |
| 20260507012406 | 19 | 163 | 9.7 | 14.5 | 0.00 | 0.00 | 0.00 | 90 | |
| 20260507012112 | 19 | 167 | 9.7 | 16.1 | 0.00 | 0.00 | 0.00 | 90 | |
| 20260507011806 | 20 | 174 | 9.7 | 17.7 | 0.00 | 0.00 | 0.00 | 90 | |
| 20260507011510 | 19 | 205 | 9.7 | 19.3 | 0.00 | 0.00 | 0.00 | 90 | |
| 20260507011213 | 19 | 173 | 9.7 | 14.5 | 0.00 | 0.00 | 0.00 | 90 | |
| 20260507010905 | 19 | 196 | 11.3 | 14.5 | 0.00 | 0.00 | 0.00 | 91 | |
| 20260507010610 | 19 | 182 | 6.4 | 11.3 | 0.00 | 0.00 | 0.00 | 91 | |
| 20260507010303 | 19 | 222 | 11.3 | 12.9 | 0.00 | 0.00 | 0.00 | 92 | |
| 20260507010004 | 19 | 186 | 8.0 | 14.5 | 0.00 | 0.00 | 0.00 | 92 | |
| 20260507005413 | 19 | 158 | 6.4 | 6.4 | 0.00 | 0.00 | 0.00 | 92 | |
| 20260507005106 | 19 | 206 | 11.3 | 12.9 | 0.00 | 0.00 | 0.00 | 92 | |
| 20260507004810 | 19 | 182 | 4.8 | 12.9 | 0.00 | 0.00 | 0.00 | 92 | |
| 20260507004503 | 19 | 190 | 9.7 | 14.5 | 0.00 | 0.00 | 0.00 | 92 | |
| 20260507004208 | 19 | 232 | 12.9 | 14.5 | 0.00 | 0.00 | 0.00 | 93 | |
| 20260507003913 | 19 | 154 | 11.3 | 16.1 | 0.00 | 0.00 | 0.00 | 93 | |
| 20260507003605 | 20 | 192 | 11.3 | 14.5 | 0.00 | 0.00 | 0.00 | 93 | |
| 20260507003311 | 20 | 160 | 8.0 | 12.9 | 0.00 | 0.00 | 0.00 | 93 | |
| 20260507003004 | 20 | 158 | 11.3 | 14.5 | 0.00 | 0.00 | 0.00 | 93 | |
| 20260507002709 | 20 | 151 | 9.7 | 14.5 | 0.00 | 0.00 | 0.00 | 93 | |
| 20260507002413 | 20 | 192 | 9.7 | 16.1 | 0.00 | 0.00 | 0.00 | 93 | |
| 20260507002106 | 20 | 202 | 9.7 | 17.7 | 0.00 | 0.00 | 0.00 | 93 | |
| 20260507001810 | 20 | 188 | 9.7 | 14.5 | 0.00 | 0.00 | 0.00 | 93 | |
| 20260507001513 | 20 | 159 | 11.3 | 14.5 | 0.00 | 0.00 | 0.00 | 93 | |
| 20260507001206 | 20 | 181 | 11.3 | 12.9 | 0.00 | 0.00 | 0.00 | 93 | |
| 20260507000912 | 20 | 200 | 9.7 | 17.7 | 0.00 | 0.00 | 0.00 | 93 | |
| 20260507000605 | 20 | 191 | 16.1 | 17.7 | 0.00 | 0.00 | 0.00 | 93 | |
| 20260507000306 | 20 | 148 | 11.3 | 12.9 | 0.00 | 0.00 | 0.00 | 92 | |
| 20260507000010 | 20 | 161 | 9.7 | 14.5 | 0.00 | 0.00 | 0.00 | 92 | |
| 20260506235412 | 20 | 154 | 12.9 | 16.1 | 0.00 | 0.00 | 0.00 | 92 | |
| 20260506235106 | 20 | 205 | 11.3 | 16.1 | 0.00 | 0.00 | 0.00 | 92 | |
| 20260506234812 | 20 | 200 | 14.5 | 17.7 | 0.00 | 0.00 | 0.00 | 92 | |
| 20260506234505 | 20 | 168 | 14.5 | 17.7 | 0.00 | 0.00 | 0.00 | 92 | |
| 20260506234210 | 20 | 196 | 11.3 | 22.5 | 0.00 | 0.00 | 0.00 | 92 | |
| 20260506233903 | 20 | 204 | 11.3 | 17.7 | 0.00 | 0.00 | 0.00 | 91 | |
| 20260506233606 | 20 | 201 | 14.5 | 19.3 | 0.00 | 0.00 | 0.00 | 91 | |
| 20260506233312 | 20 | 169 | 9.7 | 16.1 | 0.00 | 0.00 | 0.00 | 91 | |
| 20260506233007 | 20 | 201 | 9.7 | 17.7 | 0.00 | 0.00 | 0.00 | 91 | |
| 20260506232712 | 20 | 217 | 17.7 | 24.1 | 0.00 | 0.00 | 0.00 | 91 | |
| 20260506232406 | 20 | 188 | 17.7 | 24.1 | 0.00 | 0.00 | 0.00 | 91 | |
| 20260506232110 | 20 | 166 | 16.1 | 19.3 | 0.00 | 0.00 | 0.00 | 91 | |
| 20260506231804 | 20 | 172 | 14.5 | 19.3 | 0.00 | 0.00 | 0.00 | 90 | |
| 20260506231509 | 20 | 203 | 17.7 | 19.3 | 0.00 | 0.00 | 0.00 | 90 | |
| 20260506231213 | 20 | 196 | 14.5 | 22.5 | 0.00 | 0.00 | 0.00 | 91 | |
| 20260506230906 | 20 | 172 | 19.3 | 24.1 | 0.00 | 0.00 | 0.00 | 91 | |
| 20260506230610 | 20 | 174 | 19.3 | 25.7 | 0.00 | 0.00 | 0.00 | 91 | |
| 20260506230311 | 20 | 195 | 16.1 | 19.3 | 0.00 | 0.00 | 0.00 | 91 | |
| 20260506230004 | 20 | 176 | 16.1 | 22.5 | 0.00 | 0.00 | 0.00 | 90 | |
| 20260506225411 | 20 | 165 | 14.5 | 19.3 | 0.00 | 0.00 | 0.00 | 91 | |
| 20260506225104 | 20 | 209 | 14.5 | 22.5 | 0.00 | 0.00 | 0.00 | 91 | |
| 20260506224810 | 20 | 166 | 16.1 | 19.3 | 0.00 | 0.00 | 0.00 | 91 | |
| 20260506224503 | 20 | 168 | 14.5 | 19.3 | 0.00 | 0.00 | 0.00 | 91 | |
| 20260506224207 | 20 | 186 | 14.5 | 19.3 | 0.00 | 0.00 | 0.00 | 90 | |
| 20260506223912 | 20 | 167 | 16.1 | 19.3 | 0.00 | 0.00 | 0.00 | 90 | |
| 20260506223606 | 20 | 186 | 14.5 | 17.7 | 0.00 | 0.00 | 0.00 | 90 | |
| 20260506223312 | 20 | 188 | 16.1 | 17.7 | 0.00 | 0.00 | 0.00 | 89 | |
| 20260506223006 | 20 | 171 | 11.3 | 16.1 | 0.00 | 0.00 | 0.00 | 90 | |
| 20260506222709 | 20 | 194 | 12.9 | 14.5 | 0.00 | 0.00 | 0.00 | 89 | |
| 20260506222404 | 20 | 182 | 9.7 | 14.5 | 0.00 | 0.00 | 0.00 | 89 | |
| 20260506222109 | 20 | 159 | 11.3 | 16.1 | 0.00 | 0.00 | 0.00 | 89 | |
| 20260506221813 | 21 | 168 | 11.3 | 14.5 | 0.00 | 0.00 | 0.00 | 89 | |
| 20260506221507 | 21 | 198 | 11.3 | 17.7 | 0.00 | 0.00 | 0.00 | 89 | |
| 20260506221212 | 21 | 145 | 9.7 | 12.9 | 0.00 | 0.00 | 0.00 | 89 | |
| 20260506220905 | 21 | 192 | 14.5 | 22.5 | 0.00 | 0.00 | 0.00 | 89 | |
| 20260506220610 | 21 | 197 | 11.3 | 17.7 | 0.00 | 0.00 | 0.00 | 88 | |
| 20260506220304 | 21 | 227 | 12.9 | 19.3 | 0.00 | 0.00 | 0.00 | 88 | |
| 20260506220009 | 21 | 184 | 12.9 | 14.5 | 0.00 | 0.00 | 0.00 | 88 | |
| 20260506215409 | 21 | 216 | 9.7 | 11.3 | 0.00 | 0.00 | 0.00 | 88 | |
| 20260506215112 | 21 | 197 | 12.9 | 14.5 | 0.00 | 0.00 | 0.00 | 89 | |
| 20260506214806 | 21 | 164 | 8.0 | 14.5 | 0.00 | 0.00 | 0.00 | 89 | |
| 20260506214511 | 21 | 204 | 9.7 | 14.5 | 0.00 | 0.00 | 0.00 | 89 | |
| 20260506214203 | 21 | 209 | 11.3 | 14.5 | 0.00 | 0.00 | 0.00 | 89 | |
| 20260506213907 | 21 | 210 | 12.9 | 12.9 | 0.00 | 0.00 | 0.00 | 89 | |
| 20260506213612 | 21 | 193 | 9.7 | 12.9 | 0.00 | 0.00 | 0.00 | 90 | |
| 20260506213304 | 21 | 192 | 11.3 | 16.1 | 0.00 | 0.00 | 0.00 | 89 | |
| 20260506213008 | 21 | 185 | 6.4 | 12.9 | 0.00 | 0.00 | 0.00 | 89 | |
| 20260506212709 | 21 | 187 | 11.3 | 12.9 | 0.00 | 0.00 | 0.00 | 89 | |
| 20260506212414 | 21 | 157 | 11.3 | 14.5 | 0.00 | 0.00 | 0.00 | 89 | |
| 20260506212106 | 21 | 207 | 9.7 | 14.5 | 0.00 | 0.00 | 0.00 | 89 | |
| 20260506211809 | 21 | 208 | 9.7 | 12.9 | 0.00 | 0.00 | 0.00 | 89 | |
| 20260506211513 | 21 | 212 | 9.7 | 14.5 | 0.00 | 0.00 | 0.00 | 89 | |
| 20260506211206 | 21 | 201 | 11.3 | 12.9 | 0.00 | 0.00 | 0.00 | 89 | |
| 20260506210912 | 21 | 209 | 9.7 | 12.9 | 0.00 | 0.00 | 0.00 | 88 | |
| 20260506210606 | 21 | 210 | 9.7 | 16.1 | 0.00 | 0.00 | 0.00 | 88 | |
| 20260506210310 | 21 | 176 | 8.0 | 14.5 | 0.00 | 0.00 | 0.00 | 88 | |
| 20260506210004 | 21 | 204 | 12.9 | 14.5 | 0.00 | 0.00 | 0.00 | 88 | |
| 20260506205403 | 21 | 197 | 9.7 | 14.5 | 0.00 | 0.00 | 0.00 | 86 | |
| 20260506205108 | 21 | 153 | 9.7 | 12.9 | 0.00 | 0.00 | 0.00 | 87 | |
| 20260506204812 | 21 | 200 | 6.4 | 12.9 | 0.00 | 0.00 | 0.00 | 86 | |
| 20260506204505 | 21 | 187 | 16.1 | 16.1 | 0.00 | 0.00 | 0.00 | 86 | |
| 20260506204209 | 21 | 205 | 9.7 | 12.9 | 0.00 | 0.00 | 0.00 | 86 | |
| 20260506203914 | 21 | 165 | 6.4 | 17.7 | 0.00 | 0.00 | 0.00 | 85 | |
| 20260506203608 | 21 | 152 | 12.9 | 22.5 | 0.00 | 0.00 | 0.00 | 84 | |
| 20260506203312 | 21 | 188 | 9.7 | 16.1 | 0.00 | 0.00 | 0.00 | 84 | |
| 20260506203007 | 22 | 204 | 12.9 | 16.1 | 0.00 | 0.00 | 0.00 | 83 | |
| 20260506202711 | 22 | 214 | 11.3 | 16.1 | 0.00 | 0.00 | 0.00 | 83 | |
| 20260506202404 | 21 | 195 | 9.7 | 12.9 | 0.00 | 0.00 | 0.00 | 83 | |
| 20260506202110 | 21 | 192 | 11.3 | 16.1 | 0.00 | 0.00 | 0.00 | 83 | |
| 20260506201804 | 21 | 203 | 14.5 | 17.7 | 0.00 | 0.00 | 0.00 | 83 | |
| 20260506201508 | 22 | 219 | 11.3 | 19.3 | 0.00 | 0.00 | 0.00 | 82 | |
| 20260506201213 | 22 | 169 | 8.0 | 12.9 | 0.00 | 0.00 | 0.00 | 84 | |
| 20260506200908 | 22 | 195 | 9.7 | 16.1 | 0.00 | 0.00 | 0.00 | 84 | |
| 20260506200613 | 22 | 201 | 6.4 | 12.9 | 0.00 | 0.00 | 0.00 | 83 | |
| 20260506200308 | 21 | 239 | 8.0 | 14.5 | 0.00 | 0.00 | 0.00 | 83 | |
| 20260506200012 | 22 | 175 | 6.4 | 14.5 | 0.00 | 0.00 | 0.00 | 83 | |
| 20260506200000 | 22 | 201 | 14.5 | 16.1 | 0.00 | 0.00 | 0.00 | 82 | |
| 20260506195411 | 22 | 214 | 4.8 | 9.7 | 0.00 | 0.00 | 0.00 | 83 | |
| 20260506195113 | 22 | 188 | 9.7 | 16.1 | 0.00 | 0.00 | 0.00 | 82 | |
| 20260506194805 | 22 | 218 | 11.3 | 22.5 | 0.00 | 0.00 | 0.00 | 80 | |
| 20260506194510 | 22 | 193 | 6.4 | 9.7 | 0.00 | 0.00 | 0.00 | 80 | |
| 20260506194213 | 22 | 113 | 4.8 | 9.7 | 0.00 | 0.00 | 0.00 | 79 | |
| 20260506193907 | 21 | 156 | 9.7 | 16.1 | 0.00 | 0.00 | 0.00 | 79 | |
| 20260506193612 | 22 | 144 | 11.3 | 19.3 | 0.00 | 0.00 | 0.00 | 79 | |
| 20260506193307 | 22 | 177 | 16.1 | 22.5 | 0.00 | 0.00 | 0.00 | 79 | |
| 20260506192706 | 22 | 254 | 11.3 | 16.1 | 0.00 | 0.00 | 0.00 | 78 | |
| 20260506192410 | 22 | 200 | 6.4 | 14.5 | 0.00 | 0.00 | 0.00 | 79 | |
| 20260506192114 | 23 | 133 | 6.4 | 14.5 | 0.00 | 0.00 | 0.00 | 79 | |
| 20260506191807 | 22 | 179 | 6.4 | 12.9 | 0.00 | 0.00 | 0.00 | 80 | |
| 20260506191511 | 22 | 111 | 4.8 | 9.7 | 0.00 | 0.00 | 0.00 | 81 | |
| 20260506191206 | 21 | 213 | 3.2 | 19.3 | 0.00 | 0.00 | 0.00 | 82 | |
| 20260506190910 | 22 | 123 | 9.7 | 12.9 | 0.00 | 0.00 | 0.00 | 82 | |
| 20260506190614 | 22 | 220 | 16.1 | 17.7 | 0.00 | 0.00 | 0.00 | 82 | |
| 20260506190308 | 22 | 182 | 8.0 | 16.1 | 0.00 | 0.00 | 0.00 | 81 |